sensor_id;sensor_type;location;lat;lon;timestamp;pressure;altitude;pressure_sealevel;temperature;humidity
14882;BME280;7533;51.278;12.588;2023-05-18T00:00:19;101072.44;;;25.22;52.85
14882;BME280;7533;51.278;12.588;2023-05-18T00:05:25;101076.47;;;25.17;53.23
14882;BME280;7533;51.278;12.588;2023-05-18T00:10:35;101076.06;;;25.10;53.05
14882;BME280;7533;51.278;12.588;2023-05-18T00:15:38;101074.75;;;25.03;53.21
14882;BME280;7533;51.278;12.588;2023-05-18T00:20:42;101089.34;;;25.00;53.84
14882;BME280;7533;51.278;12.588;2023-05-18T00:25:45;101085.97;;;24.97;53.77
14882;BME280;7533;51.278;12.588;2023-05-18T00:30:48;101088.19;;;24.92;53.77
14882;BME280;7533;51.278;12.588;2023-05-18T00:35:52;101097.81;;;24.83;54.31
14882;BME280;7533;51.278;12.588;2023-05-18T00:40:57;101094.69;;;24.76;54.45
14882;BME280;7533;51.278;12.588;2023-05-18T00:46:00;101092.28;;;24.72;54.74
14882;BME280;7533;51.278;12.588;2023-05-18T00:51:04;101091.53;;;24.70;54.57
14882;BME280;7533;51.278;12.588;2023-05-18T00:56:08;101108.97;;;24.66;54.76
14882;BME280;7533;51.278;12.588;2023-05-18T01:01:12;101108.31;;;24.62;54.69
14882;BME280;7533;51.278;12.588;2023-05-18T01:06:19;101110.56;;;24.56;54.98
14882;BME280;7533;51.278;12.588;2023-05-18T01:11:27;101118.81;;;24.54;55.15
14882;BME280;7533;51.278;12.588;2023-05-18T01:16:38;101118.47;;;24.46;55.14
14882;BME280;7533;51.278;12.588;2023-05-18T01:21:56;101125.16;;;24.40;55.38
14882;BME280;7533;51.278;12.588;2023-05-18T01:27:02;101127.13;;;24.38;55.51
14882;BME280;7533;51.278;12.588;2023-05-18T01:32:08;101131.94;;;24.33;55.78
14882;BME280;7533;51.278;12.588;2023-05-18T01:37:11;101134.88;;;24.30;55.68
14882;BME280;7533;51.278;12.588;2023-05-18T01:42:20;101138.84;;;24.24;55.70
14882;BME280;7533;51.278;12.588;2023-05-18T01:47:27;101135.38;;;24.22;55.88
14882;BME280;7533;51.278;12.588;2023-05-18T01:52:36;101141.75;;;24.21;55.77
14882;BME280;7533;51.278;12.588;2023-05-18T01:57:43;101132.97;;;24.18;55.89
14882;BME280;7533;51.278;12.588;2023-05-18T02:02:48;101136.75;;;24.15;56.13
14882;BME280;7533;51.278;12.588;2023-05-18T02:07:52;101140.75;;;24.10;56.26
14882;BME280;7533;51.278;12.588;2023-05-18T02:12:56;101140.53;;;24.13;56.17
14882;BME280;7533;51.278;12.588;2023-05-18T02:18:00;101146.16;;;24.10;56.24
14882;BME280;7533;51.278;12.588;2023-05-18T02:23:05;101142.69;;;24.08;56.35
14882;BME280;7533;51.278;12.588;2023-05-18T02:28:09;101142.69;;;24.08;56.31
14882;BME280;7533;51.278;12.588;2023-05-18T02:33:12;101134.34;;;24.11;56.32
14882;BME280;7533;51.278;12.588;2023-05-18T02:38:15;101135.44;;;24.08;56.42
14882;BME280;7533;51.278;12.588;2023-05-18T02:43:19;101138.22;;;24.07;56.36
14882;BME280;7533;51.278;12.588;2023-05-18T02:48:22;101143.75;;;24.05;56.63
14882;BME280;7533;51.278;12.588;2023-05-18T02:53:25;101148.41;;;24.03;56.63
14882;BME280;7533;51.278;12.588;2023-05-18T02:58:35;101156.06;;;23.96;56.68
14882;BME280;7533;51.278;12.588;2023-05-18T03:03:45;101160.56;;;23.96;56.71
14882;BME280;7533;51.278;12.588;2023-05-18T03:08:49;101164.47;;;23.92;56.65
14882;BME280;7533;51.278;12.588;2023-05-18T03:13:58;101152.00;;;23.89;56.88
14882;BME280;7533;51.278;12.588;2023-05-18T03:19:02;101165.94;;;23.83;57.03
14882;BME280;7533;51.278;12.588;2023-05-18T03:24:09;101161.50;;;23.82;57.05
14882;BME280;7533;51.278;12.588;2023-05-18T03:29:19;101163.63;;;23.77;56.92
14882;BME280;7533;51.278;12.588;2023-05-18T03:34:23;101164.78;;;23.73;57.24
14882;BME280;7533;51.278;12.588;2023-05-18T03:39:26;101166.72;;;23.71;57.25
14882;BME280;7533;51.278;12.588;2023-05-18T03:44:30;101163.34;;;23.67;57.24
14882;BME280;7533;51.278;12.588;2023-05-18T03:49:33;101167.88;;;23.67;57.51
14882;BME280;7533;51.278;12.588;2023-05-18T03:54:36;101169.72;;;23.66;57.37
14882;BME280;7533;51.278;12.588;2023-05-18T03:59:44;101176.09;;;23.65;57.46
14882;BME280;7533;51.278;12.588;2023-05-18T04:04:47;101178.06;;;23.63;57.61
14882;BME280;7533;51.278;12.588;2023-05-18T04:09:52;101183.47;;;23.63;57.49
14882;BME280;7533;51.278;12.588;2023-05-18T04:14:56;101184.31;;;23.64;57.53
14882;BME280;7533;51.278;12.588;2023-05-18T04:20:00;101192.31;;;23.65;57.62
14882;BME280;7533;51.278;12.588;2023-05-18T04:25:07;101196.00;;;23.64;57.81
14882;BME280;7533;51.278;12.588;2023-05-18T04:30:13;101207.78;;;23.63;57.87
14882;BME280;7533;51.278;12.588;2023-05-18T04:35:19;101205.09;;;23.63;57.98
14882;BME280;7533;51.278;12.588;2023-05-18T04:40:22;101204.22;;;23.63;58.32
14882;BME280;7533;51.278;12.588;2023-05-18T04:45:27;101207.78;;;23.63;57.99
14882;BME280;7533;51.278;12.588;2023-05-18T04:50:31;101207.78;;;23.63;57.99
14882;BME280;7533;51.278;12.588;2023-05-18T04:55:34;101221.19;;;23.65;57.93
14882;BME280;7533;51.278;12.588;2023-05-18T05:00:42;101217.63;;;23.64;57.87
14882;BME280;7533;51.278;12.588;2023-05-18T05:05:45;101219.34;;;23.65;57.66
14882;BME280;7533;51.278;12.588;2023-05-18T05:10:48;101221.09;;;23.66;57.56
14882;BME280;7533;51.278;12.588;2023-05-18T05:15:52;101220.13;;;23.67;57.58
14882;BME280;7533;51.278;12.588;2023-05-18T05:20:55;101221.88;;;23.68;57.48
14882;BME280;7533;51.278;12.588;2023-05-18T05:26:00;101222.63;;;23.70;57.48
14882;BME280;7533;51.278;12.588;2023-05-18T05:31:04;101224.47;;;23.70;57.52
14882;BME280;7533;51.278;12.588;2023-05-18T05:36:08;101223.59;;;23.69;57.43
14882;BME280;7533;51.278;12.588;2023-05-18T05:41:11;101225.22;;;23.72;57.53
14882;BME280;7533;51.278;12.588;2023-05-18T05:46:16;101229.59;;;23.74;57.43
14882;BME280;7533;51.278;12.588;2023-05-18T05:51:19;101225.13;;;23.73;57.36
14882;BME280;7533;51.278;12.588;2023-05-18T05:56:22;101229.59;;;23.74;57.59
14882;BME280;7533;51.278;12.588;2023-05-18T06:01:26;101224.19;;;23.74;57.46
14882;BME280;7533;51.278;12.588;2023-05-18T06:06:30;101233.81;;;23.79;57.31
14882;BME280;7533;51.278;12.588;2023-05-18T06:11:33;101230.06;;;23.81;57.27
14882;BME280;7533;51.278;12.588;2023-05-18T06:16:37;101222.72;;;23.83;57.36
14882;BME280;7533;51.278;12.588;2023-05-18T06:21:41;101230.72;;;23.85;57.09
14882;BME280;7533;51.278;12.588;2023-05-18T06:26:44;101232.38;;;23.87;57.25
14882;BME280;7533;51.278;12.588;2023-05-18T06:32:03;101222.31;;;23.89;57.28
14882;BME280;7533;51.278;12.588;2023-05-18T06:37:09;101230.53;;;23.88;57.27
14882;BME280;7533;51.278;12.588;2023-05-18T06:42:12;101234.97;;;23.89;57.37
14882;BME280;7533;51.278;12.588;2023-05-18T06:47:26;101237.47;;;23.92;57.48
14882;BME280;7533;51.278;12.588;2023-05-18T06:52:29;101240.06;;;23.93;57.32
14882;BME280;7533;51.278;12.588;2023-05-18T06:57:33;101245.38;;;23.95;57.24
14882;BME280;7533;51.278;12.588;2023-05-18T07:02:38;101247.31;;;23.93;57.27
14882;BME280;7533;51.278;12.588;2023-05-18T07:07:44;101241.34;;;22.70;46.88
14882;BME280;7533;51.278;12.588;2023-05-18T07:12:48;101243.69;;;22.15;45.41
14882;BME280;7533;51.278;12.588;2023-05-18T07:17:52;101242.19;;;22.41;45.14
14882;BME280;7533;51.278;12.588;2023-05-18T07:27:59;101253.88;;;21.77;44.03
14882;BME280;7533;51.278;12.588;2023-05-18T07:33:03;101246.34;;;21.99;44.43
14882;BME280;7533;51.278;12.588;2023-05-18T07:38:06;101250.91;;;23.06;43.28
14882;BME280;7533;51.278;12.588;2023-05-18T07:43:09;101244.31;;;23.26;44.10
14882;BME280;7533;51.278;12.588;2023-05-18T07:48:13;101240.19;;;23.35;44.89
14882;BME280;7533;51.278;12.588;2023-05-18T07:53:16;101245.19;;;23.41;45.71
14882;BME280;7533;51.278;12.588;2023-05-18T07:58:19;101254.06;;;23.43;46.45
14882;BME280;7533;51.278;12.588;2023-05-18T08:03:24;101245.78;;;23.46;46.73
14882;BME280;7533;51.278;12.588;2023-05-18T08:08:27;101253.69;;;23.49;47.10
14882;BME280;7533;51.278;12.588;2023-05-18T08:13:30;101248.16;;;23.50;47.53
14882;BME280;7533;51.278;12.588;2023-05-18T08:18:36;101259.66;;;23.54;47.43
14882;BME280;7533;51.278;12.588;2023-05-18T08:23:39;101255.59;;;23.61;47.53
14882;BME280;7533;51.278;12.588;2023-05-18T08:28:42;101248.22;;;23.65;47.67
14882;BME280;7533;51.278;12.588;2023-05-18T08:33:47;101239.25;;;23.64;47.89
14882;BME280;7533;51.278;12.588;2023-05-18T08:38:50;101250.91;;;23.65;47.73
14882;BME280;7533;51.278;12.588;2023-05-18T08:43:59;101248.13;;;23.66;48.05
14882;BME280;7533;51.278;12.588;2023-05-18T08:49:04;101247.06;;;23.69;48.28
14882;BME280;7533;51.278;12.588;2023-05-18T08:54:09;101243.28;;;23.71;48.36
14882;BME280;7533;51.278;12.588;2023-05-18T08:59:15;101236.91;;;23.72;48.14
14882;BME280;7533;51.278;12.588;2023-05-18T09:04:22;101245.59;;;23.78;48.07
14882;BME280;7533;51.278;12.588;2023-05-18T09:09:25;101240.00;;;23.81;48.06
14882;BME280;7533;51.278;12.588;2023-05-18T09:14:31;101240.88;;;23.81;48.10
14882;BME280;7533;51.278;12.588;2023-05-18T09:19:35;101228.97;;;23.84;48.08
14882;BME280;7533;51.278;12.588;2023-05-18T09:24:38;101219.88;;;23.85;48.46
14882;BME280;7533;51.278;12.588;2023-05-18T09:29:50;101224.94;;;23.91;48.68
14882;BME280;7533;51.278;12.588;2023-05-18T09:35:03;101214.97;;;23.91;48.75
14882;BME280;7533;51.278;12.588;2023-05-18T09:40:07;101227.53;;;23.92;48.88
14882;BME280;7533;51.278;12.588;2023-05-18T09:45:15;101231.84;;;23.95;48.75
14882;BME280;7533;51.278;12.588;2023-05-18T09:50:23;101215.63;;;23.95;48.73
14882;BME280;7533;51.278;12.588;2023-05-18T09:55:26;101222.00;;;23.94;48.39
14882;BME280;7533;51.278;12.588;2023-05-18T10:00:29;101230.13;;;23.94;48.66
14882;BME280;7533;51.278;12.588;2023-05-18T10:05:40;101225.59;;;23.94;48.32
14882;BME280;7533;51.278;12.588;2023-05-18T10:10:45;101220.84;;;23.98;48.28
14882;BME280;7533;51.278;12.588;2023-05-18T10:15:50;101212.84;;;23.96;48.40
14882;BME280;7533;51.278;12.588;2023-05-18T10:20:59;101211.78;;;23.99;48.32
14882;BME280;7533;51.278;12.588;2023-05-18T10:26:04;101193.69;;;23.99;48.30
14882;BME280;7533;51.278;12.588;2023-05-18T10:31:07;101189.16;;;24.00;48.06
14882;BME280;7533;51.278;12.588;2023-05-18T10:36:12;101190.59;;;24.06;48.07
14882;BME280;7533;51.278;12.588;2023-05-18T10:41:17;101176.88;;;24.09;48.62
14882;BME280;7533;51.278;12.588;2023-05-18T10:46:24;101182.19;;;24.10;49.18
14882;BME280;7533;51.278;12.588;2023-05-18T10:51:30;101185.75;;;24.11;49.08
14882;BME280;7533;51.278;12.588;2023-05-18T10:56:46;101184.00;;;24.10;48.88
14882;BME280;7533;51.278;12.588;2023-05-18T11:01:52;101177.53;;;24.12;48.21
14882;BME280;7533;51.278;12.588;2023-05-18T11:07:00;101172.78;;;24.16;48.31
14882;BME280;7533;51.278;12.588;2023-05-18T11:12:10;101180.03;;;24.15;47.59
14882;BME280;7533;51.278;12.588;2023-05-18T11:17:18;101159.25;;;24.16;47.64
14882;BME280;7533;51.278;12.588;2023-05-18T11:22:22;101149.41;;;24.15;46.60
14882;BME280;7533;51.278;12.588;2023-05-18T11:27:27;101146.31;;;24.21;47.51
14882;BME280;7533;51.278;12.588;2023-05-18T11:32:30;101149.75;;;24.23;47.10
14882;BME280;7533;51.278;12.588;2023-05-18T11:37:48;101150.84;;;24.20;46.89
14882;BME280;7533;51.278;12.588;2023-05-18T11:42:57;101151.16;;;24.16;46.75
14882;BME280;7533;51.278;12.588;2023-05-18T11:48:01;101135.72;;;24.31;46.93
14882;BME280;7533;51.278;12.588;2023-05-18T11:53:05;101147.31;;;24.33;46.94
14882;BME280;7533;51.278;12.588;2023-05-18T11:58:09;101148.69;;;24.25;46.64
14882;BME280;7533;51.278;12.588;2023-05-18T12:03:12;101145.13;;;24.25;46.61
14882;BME280;7533;51.278;12.588;2023-05-18T12:08:17;101150.72;;;24.36;46.69
14882;BME280;7533;51.278;12.588;2023-05-18T12:13:21;101141.09;;;24.45;46.87
14882;BME280;7533;51.278;12.588;2023-05-18T12:18:27;101147.47;;;24.44;46.57
14882;BME280;7533;51.278;12.588;2023-05-18T12:23:37;101138.25;;;24.46;46.59
14882;BME280;7533;51.278;12.588;2023-05-18T12:28:40;101136.97;;;24.52;46.29
14882;BME280;7533;51.278;12.588;2023-05-18T12:33:43;101135.06;;;24.54;45.31
14882;BME280;7533;51.278;12.588;2023-05-18T12:38:50;101123.06;;;24.58;45.48
14882;BME280;7533;51.278;12.588;2023-05-18T12:43:54;101112.84;;;24.62;45.36
14882;BME280;7533;51.278;12.588;2023-05-18T12:48:59;101137.03;;;24.65;45.17
14882;BME280;7533;51.278;12.588;2023-05-18T12:54:07;101128.13;;;24.63;44.93
14882;BME280;7533;51.278;12.588;2023-05-18T12:59:09;101119.69;;;24.67;44.93
14882;BME280;7533;51.278;12.588;2023-05-18T13:04:12;101108.22;;;24.64;45.41
14882;BME280;7533;51.278;12.588;2023-05-18T13:09:17;101105.16;;;24.56;46.65
14882;BME280;7533;51.278;12.588;2023-05-18T13:14:21;101105.59;;;24.49;47.36
14882;BME280;7533;51.278;12.588;2023-05-18T13:19:24;101117.63;;;24.58;47.70
14882;BME280;7533;51.278;12.588;2023-05-18T13:24:29;101112.22;;;24.58;47.12
14882;BME280;7533;51.278;12.588;2023-05-18T13:29:32;101099.75;;;24.56;48.14
14882;BME280;7533;51.278;12.588;2023-05-18T13:34:35;101107.97;;;24.54;47.94
14882;BME280;7533;51.278;12.588;2023-05-18T13:39:40;101096.94;;;24.57;47.11
14882;BME280;7533;51.278;12.588;2023-05-18T13:44:42;101105.28;;;24.54;46.58
14882;BME280;7533;51.278;12.588;2023-05-18T13:49:45;101092.06;;;24.49;45.96
14882;BME280;7533;51.278;12.588;2023-05-18T13:54:49;101091.09;;;24.50;45.57
14882;BME280;7533;51.278;12.588;2023-05-18T13:59:52;101095.06;;;24.45;45.10
14882;BME280;7533;51.278;12.588;2023-05-18T14:04:55;101093.16;;;24.47;45.05
14882;BME280;7533;51.278;12.588;2023-05-18T14:10:00;101078.41;;;24.51;44.96
14882;BME280;7533;51.278;12.588;2023-05-18T14:15:04;101085.97;;;24.46;45.08
14882;BME280;7533;51.278;12.588;2023-05-18T14:20:08;101086.22;;;24.43;45.04
14882;BME280;7533;51.278;12.588;2023-05-18T14:25:12;101082.66;;;24.42;44.97
14882;BME280;7533;51.278;12.588;2023-05-18T14:30:16;101085.78;;;24.49;44.97
14882;BME280;7533;51.278;12.588;2023-05-18T14:35:18;101085.03;;;24.47;44.83
14882;BME280;7533;51.278;12.588;2023-05-18T14:40:23;101072.78;;;24.41;44.39
14882;BME280;7533;51.278;12.588;2023-05-18T14:45:26;101070.59;;;24.46;44.60
14882;BME280;7533;51.278;12.588;2023-05-18T14:50:29;101068.88;;;24.45;44.73
14882;BME280;7533;51.278;12.588;2023-05-18T14:55:34;101074.72;;;24.39;45.02
14882;BME280;7533;51.278;12.588;2023-05-18T15:00:37;101082.31;;;24.47;44.74
14882;BME280;7533;51.278;12.588;2023-05-18T15:05:40;101081.34;;;24.48;45.05
14882;BME280;7533;51.278;12.588;2023-05-18T15:10:46;101072.78;;;24.41;45.95
14882;BME280;7533;51.278;12.588;2023-05-18T15:15:50;101071.25;;;24.37;45.67
14882;BME280;7533;51.278;12.588;2023-05-18T15:20:53;101067.69;;;24.49;46.14
14882;BME280;7533;51.278;12.588;2023-05-18T15:25:57;101071.16;;;24.51;46.41
14882;BME280;7533;51.278;12.588;2023-05-18T15:31:02;101072.91;;;24.52;46.83
14882;BME280;7533;51.278;12.588;2023-05-18T15:36:05;101058.06;;;24.45;47.24
14882;BME280;7533;51.278;12.588;2023-05-18T15:41:09;101061.06;;;24.41;47.51
14882;BME280;7533;51.278;12.588;2023-05-18T15:46:12;101060.47;;;24.23;47.93
14882;BME280;7533;51.278;12.588;2023-05-18T15:51:15;101060.13;;;24.42;48.02
14882;BME280;7533;51.278;12.588;2023-05-18T15:56:19;101058.09;;;24.58;48.03
14882;BME280;7533;51.278;12.588;2023-05-18T16:01:22;101047.00;;;24.74;48.26
14882;BME280;7533;51.278;12.588;2023-05-18T16:06:25;101046.78;;;24.90;48.24
14882;BME280;7533;51.278;12.588;2023-05-18T16:11:30;101038.78;;;24.88;48.71
14882;BME280;7533;51.278;12.588;2023-05-18T16:16:36;101032.59;;;25.12;49.45
14882;BME280;7533;51.278;12.588;2023-05-18T16:21:39;101024.72;;;25.09;50.65
14882;BME280;7533;51.278;12.588;2023-05-18T16:26:43;101025.31;;;25.12;51.02
14882;BME280;7533;51.278;12.588;2023-05-18T16:31:46;101037.34;;;25.21;50.54
14882;BME280;7533;51.278;12.588;2023-05-18T16:36:49;101041.44;;;25.26;50.79
14882;BME280;7533;51.278;12.588;2023-05-18T16:41:53;101039.28;;;25.31;50.60
14882;BME280;7533;51.278;12.588;2023-05-18T16:46:57;101037.19;;;25.35;50.31
14882;BME280;7533;51.278;12.588;2023-05-18T16:52:00;101036.09;;;25.38;50.07
14882;BME280;7533;51.278;12.588;2023-05-18T16:57:05;101045.72;;;25.42;50.27
14882;BME280;7533;51.278;12.588;2023-05-18T17:02:08;101036.91;;;25.51;49.99
14882;BME280;7533;51.278;12.588;2023-05-18T17:07:14;101033.47;;;25.49;49.84
14882;BME280;7533;51.278;12.588;2023-05-18T17:12:20;101034.06;;;25.52;49.86
14882;BME280;7533;51.278;12.588;2023-05-18T17:17:23;101031.88;;;25.57;49.75
14882;BME280;7533;51.278;12.588;2023-05-18T17:22:26;101037.97;;;25.61;49.41
14882;BME280;7533;51.278;12.588;2023-05-18T17:27:31;101041.19;;;25.66;49.60
14882;BME280;7533;51.278;12.588;2023-05-18T17:32:34;101041.94;;;25.68;49.96
14882;BME280;7533;51.278;12.588;2023-05-18T17:37:39;101040.72;;;25.72;49.59
14882;BME280;7533;51.278;12.588;2023-05-18T17:42:44;101039.75;;;25.73;49.77
14882;BME280;7533;51.278;12.588;2023-05-18T17:47:47;101032.91;;;25.80;49.37
14882;BME280;7533;51.278;12.588;2023-05-18T17:52:50;101040.50;;;25.75;49.79
14882;BME280;7533;51.278;12.588;2023-05-18T17:57:54;101040.22;;;25.91;49.46
14882;BME280;7533;51.278;12.588;2023-05-18T18:03:00;101040.00;;;25.94;49.50
14882;BME280;7533;51.278;12.588;2023-05-18T18:08:03;101045.81;;;26.01;49.45
14882;BME280;7533;51.278;12.588;2023-05-18T18:13:07;101045.06;;;25.99;49.60
14882;BME280;7533;51.278;12.588;2023-05-18T18:18:10;101047.56;;;26.13;50.01
14882;BME280;7533;51.278;12.588;2023-05-18T18:23:14;101049.94;;;26.18;50.15
14882;BME280;7533;51.278;12.588;2023-05-18T18:28:18;101044.25;;;26.21;50.35
14882;BME280;7533;51.278;12.588;2023-05-18T18:33:21;101056.38;;;26.28;50.31
14882;BME280;7533;51.278;12.588;2023-05-18T18:38:26;101054.28;;;26.31;50.40
14882;BME280;7533;51.278;12.588;2023-05-18T18:43:31;101055.53;;;26.27;50.71
14882;BME280;7533;51.278;12.588;2023-05-18T18:48:35;101063.94;;;26.35;50.62
14882;BME280;7533;51.278;12.588;2023-05-18T18:53:38;101061.00;;;26.38;50.63
14882;BME280;7533;51.278;12.588;2023-05-18T18:58:42;101064.41;;;26.29;51.18
14882;BME280;7533;51.278;12.588;2023-05-18T19:03:46;101071.09;;;26.36;50.82
14882;BME280;7533;51.278;12.588;2023-05-18T19:08:48;101071.84;;;26.38;51.01
14882;BME280;7533;51.278;12.588;2023-05-18T19:13:54;101072.38;;;26.44;50.63
14882;BME280;7533;51.278;12.588;2023-05-18T19:18:57;101076.50;;;26.36;50.98
14882;BME280;7533;51.278;12.588;2023-05-18T19:24:00;101084.97;;;26.45;50.95
14882;BME280;7533;51.278;12.588;2023-05-18T19:29:04;101081.41;;;26.44;50.63
14882;BME280;7533;51.278;12.588;2023-05-18T19:34:07;101089.16;;;26.49;50.80
14882;BME280;7533;51.278;12.588;2023-05-18T19:39:09;101091.66;;;26.52;50.75
14882;BME280;7533;51.278;12.588;2023-05-18T19:44:14;101097.44;;;26.47;50.75
14882;BME280;7533;51.278;12.588;2023-05-18T19:49:17;101102.34;;;26.42;51.01
14882;BME280;7533;51.278;12.588;2023-05-18T19:54:20;101087.44;;;26.48;50.78
14882;BME280;7533;51.278;12.588;2023-05-18T19:59:24;101087.81;;;26.54;50.60
14882;BME280;7533;51.278;12.588;2023-05-18T20:04:27;101092.63;;;26.51;50.60
14882;BME280;7533;51.278;12.588;2023-05-18T20:09:30;101094.59;;;26.49;50.75
14882;BME280;7533;51.278;12.588;2023-05-18T20:14:34;101090.16;;;26.59;50.58
14882;BME280;7533;51.278;12.588;2023-05-18T20:19:39;101094.50;;;26.50;50.66
14882;BME280;7533;51.278;12.588;2023-05-18T20:24:50;101090.28;;;26.57;50.33
14882;BME280;7533;51.278;12.588;2023-05-18T20:29:55;101103.25;;;26.65;50.64
14882;BME280;7533;51.278;12.588;2023-05-18T20:34:58;101095.38;;;26.62;50.54
14882;BME280;7533;51.278;12.588;2023-05-18T20:40:01;101104.75;;;26.69;50.43
14882;BME280;7533;51.278;12.588;2023-05-18T20:45:10;101098.59;;;26.67;50.30
14882;BME280;7533;51.278;12.588;2023-05-18T20:50:14;101094.88;;;26.68;50.63
14882;BME280;7533;51.278;12.588;2023-05-18T20:55:18;101100.06;;;26.82;50.46
14882;BME280;7533;51.278;12.588;2023-05-18T21:00:22;101096.00;;;26.77;50.53
14882;BME280;7533;51.278;12.588;2023-05-18T21:05:25;101086.38;;;26.73;50.58
14882;BME280;7533;51.278;12.588;2023-05-18T21:10:28;101082.69;;;26.74;50.47
14882;BME280;7533;51.278;12.588;2023-05-18T21:15:34;101081.44;;;26.78;50.52
14882;BME280;7533;51.278;12.588;2023-05-18T21:20:37;101090.34;;;26.80;50.25
14882;BME280;7533;51.278;12.588;2023-05-18T21:25:40;101079.97;;;26.74;50.66
14882;BME280;7533;51.278;12.588;2023-05-18T21:30:45;101086.97;;;26.76;50.58
14882;BME280;7533;51.278;12.588;2023-05-18T21:35:49;101080.69;;;26.76;50.50
14882;BME280;7533;51.278;12.588;2023-05-18T21:40:53;101081.19;;;26.70;50.62
14882;BME280;7533;51.278;12.588;2023-05-18T21:45:58;101083.06;;;26.80;50.46
14882;BME280;7533;51.278;12.588;2023-05-18T21:51:00;101083.41;;;26.76;50.57
14882;BME280;7533;51.278;12.588;2023-05-18T21:56:05;101087.84;;;26.77;50.41
14882;BME280;7533;51.278;12.588;2023-05-18T22:01:09;101082.31;;;26.78;50.75
14882;BME280;7533;51.278;12.588;2023-05-18T22:06:12;101082.31;;;26.78;50.33
14882;BME280;7533;51.278;12.588;2023-05-18T22:11:15;101079.34;;;26.81;50.65
14882;BME280;7533;51.278;12.588;2023-05-18T22:16:19;101076.53;;;26.83;50.59
14882;BME280;7533;51.278;12.588;2023-05-18T22:21:22;101074.66;;;26.83;50.69
14882;BME280;7533;51.278;12.588;2023-05-18T22:26:25;101071.94;;;26.83;50.63
14882;BME280;7533;51.278;12.588;2023-05-18T22:31:29;101071.56;;;26.77;50.96
14882;BME280;7533;51.278;12.588;2023-05-18T22:36:33;101070.69;;;26.76;50.89
14882;BME280;7533;51.278;12.588;2023-05-18T22:41:36;101072.81;;;26.73;50.99
14882;BME280;7533;51.278;12.588;2023-05-18T22:46:41;101069.59;;;26.68;50.98
14882;BME280;7533;51.278;12.588;2023-05-18T22:51:45;101066.38;;;26.62;51.01
14882;BME280;7533;51.278;12.588;2023-05-18T22:56:48;101073.16;;;26.57;51.44
14882;BME280;7533;51.278;12.588;2023-05-18T23:01:52;101074.38;;;26.53;51.64
14882;BME280;7533;51.278;12.588;2023-05-18T23:06:55;101074.72;;;26.48;51.76
14882;BME280;7533;51.278;12.588;2023-05-18T23:11:58;101067.81;;;26.44;51.61
14882;BME280;7533;51.278;12.588;2023-05-18T23:17:03;101073.41;;;26.30;51.75
14882;BME280;7533;51.278;12.588;2023-05-18T23:22:07;101065.53;;;26.27;52.06
14882;BME280;7533;51.278;12.588;2023-05-18T23:27:09;101078.44;;;26.23;52.01
14882;BME280;7533;51.278;12.588;2023-05-18T23:32:14;101066.34;;;26.16;52.46
14882;BME280;7533;51.278;12.588;2023-05-18T23:37:17;101064.09;;;26.10;52.18
14882;BME280;7533;51.278;12.588;2023-05-18T23:42:23;101057.53;;;26.01;52.23
14882;BME280;7533;51.278;12.588;2023-05-18T23:47:27;101052.34;;;25.98;52.75
14882;BME280;7533;51.278;12.588;2023-05-18T23:52:31;101052.91;;;25.91;52.56
14882;BME280;7533;51.278;12.588;2023-05-18T23:57:35;101052.31;;;25.87;53.04
